sensor_id;sensor_type;location;lat;lon;timestamp;pressure;altitude;pressure_sealevel;temperature;humidity
10638;BME280;47007;49.252;8.904;2023-04-01T00:00:21;98305.28;;;10.50;100.00
10638;BME280;47007;49.252;8.904;2023-04-01T00:01:04;98321.47;;;10.60;100.00
10638;BME280;47007;49.252;8.904;2023-04-01T00:01:46;98317.56;;;10.63;100.00
10638;BME280;47007;49.252;8.904;2023-04-01T00:02:28;98319.84;;;10.59;100.00
10638;BME280;47007;49.252;8.904;2023-04-01T00:03:09;98299.38;;;10.48;100.00
10638;BME280;47007;49.252;8.904;2023-04-01T00:03:51;98308.94;;;10.49;100.00
10638;BME280;47007;49.252;8.904;2023-04-01T00:04:33;98316.81;;;10.56;100.00
10638;BME280;47007;49.252;8.904;2023-04-01T00:05:15;98321.91;;;10.57;100.00
10638;BME280;47007;49.252;8.904;2023-04-01T00:05:58;98308.50;;;10.52;100.00
10638;BME280;47007;49.252;8.904;2023-04-01T00:06:40;98318.00;;;10.60;100.00
10638;BME280;47007;49.252;8.904;2023-04-01T00:07:21;98317.78;;;10.61;100.00
10638;BME280;47007;49.252;8.904;2023-04-01T00:08:04;98316.75;;;10.62;100.00
10638;BME280;47007;49.252;8.904;2023-04-01T00:08:46;98312.84;;;10.65;100.00
10638;BME280;47007;49.252;8.904;2023-04-01T00:09:28;98310.78;;;10.67;100.00
10638;BME280;47007;49.252;8.904;2023-04-01T00:10:11;98315.34;;;10.60;100.00
10638;BME280;47007;49.252;8.904;2023-04-01T00:10:53;98315.28;;;10.66;100.00
10638;BME280;47007;49.252;8.904;2023-04-01T00:11:35;98309.63;;;10.63;100.00
10638;BME280;47007;49.252;8.904;2023-04-01T00:12:17;98280.31;;;10.39;100.00
10638;BME280;47007;49.252;8.904;2023-04-01T00:12:58;98315.56;;;10.58;100.00
10638;BME280;47007;49.252;8.904;2023-04-01T00:13:41;98319.41;;;10.62;100.00
10638;BME280;47007;49.252;8.904;2023-04-01T00:14:23;98322.63;;;10.64;100.00
10638;BME280;47007;49.252;8.904;2023-04-01T00:15:08;98314.47;;;10.66;100.00
10638;BME280;47007;49.252;8.904;2023-04-01T00:15:50;98302.72;;;10.62;100.00
10638;BME280;47007;49.252;8.904;2023-04-01T00:16:32;98316.09;;;10.67;100.00
10638;BME280;47007;49.252;8.904;2023-04-01T00:17:14;98316.91;;;10.67;100.00
10638;BME280;47007;49.252;8.904;2023-04-01T00:17:55;98297.84;;;10.59;100.00
10638;BME280;47007;49.252;8.904;2023-04-01T00:18:37;98314.03;;;10.69;100.00
10638;BME280;47007;49.252;8.904;2023-04-01T00:19:19;98307.53;;;10.65;100.00
10638;BME280;47007;49.252;8.904;2023-04-01T00:20:02;98308.72;;;10.69;100.00
10638;BME280;47007;49.252;8.904;2023-04-01T00:20:48;98320.31;;;10.74;100.00
10638;BME280;47007;49.252;8.904;2023-04-01T00:21:30;98306.69;;;10.71;100.00
10638;BME280;47007;49.252;8.904;2023-04-01T00:22:12;98303.22;;;10.70;100.00
10638;BME280;47007;49.252;8.904;2023-04-01T00:22:54;98316.38;;;10.77;100.00
10638;BME280;47007;49.252;8.904;2023-04-01T00:23:36;98313.59;;;10.72;100.00
10638;BME280;47007;49.252;8.904;2023-04-01T00:24:18;98298.72;;;10.71;100.00
10638;BME280;47007;49.252;8.904;2023-04-01T00:25:00;98310.25;;;10.76;100.00
10638;BME280;47007;49.252;8.904;2023-04-01T00:25:42;98323.75;;;10.75;100.00
10638;BME280;47007;49.252;8.904;2023-04-01T00:26:24;98319.13;;;10.70;100.00
10638;BME280;47007;49.252;8.904;2023-04-01T00:27:06;98299.72;;;10.52;100.00
10638;BME280;47007;49.252;8.904;2023-04-01T00:27:49;98310.13;;;10.53;100.00
10638;BME280;47007;49.252;8.904;2023-04-01T00:28:33;98309.31;;;10.53;100.00
10638;BME280;47007;49.252;8.904;2023-04-01T00:29:15;98321.69;;;10.59;100.00
10638;BME280;47007;49.252;8.904;2023-04-01T00:29:57;98308.75;;;10.51;100.00
10638;BME280;47007;49.252;8.904;2023-04-01T00:30:39;98317.84;;;10.55;100.00
10638;BME280;47007;49.252;8.904;2023-04-01T00:31:21;98314.81;;;10.51;100.00
10638;BME280;47007;49.252;8.904;2023-04-01T00:32:02;98286.50;;;10.33;100.00
10638;BME280;47007;49.252;8.904;2023-04-01T00:32:44;98304.53;;;10.43;100.00
10638;BME280;47007;49.252;8.904;2023-04-01T00:33:26;98319.16;;;10.46;100.00
10638;BME280;47007;49.252;8.904;2023-04-01T00:34:08;98298.41;;;10.42;100.00
10638;BME280;47007;49.252;8.904;2023-04-01T00:34:50;98303.28;;;10.46;100.00
10638;BME280;47007;49.252;8.904;2023-04-01T00:35:33;98320.50;;;10.55;100.00
10638;BME280;47007;49.252;8.904;2023-04-01T00:36:17;98317.25;;;10.53;100.00
10638;BME280;47007;49.252;8.904;2023-04-01T00:37:00;98325.66;;;10.50;100.00
10638;BME280;47007;49.252;8.904;2023-04-01T00:37:42;98314.09;;;10.44;100.00
10638;BME280;47007;49.252;8.904;2023-04-01T00:38:23;98326.22;;;10.52;100.00
10638;BME280;47007;49.252;8.904;2023-04-01T00:39:05;98312.97;;;10.52;100.00
10638;BME280;47007;49.252;8.904;2023-04-01T00:39:47;98328.88;;;10.52;100.00
10638;BME280;47007;49.252;8.904;2023-04-01T00:40:34;98318.28;;;10.52;100.00
10638;BME280;47007;49.252;8.904;2023-04-01T00:41:18;98316.22;;;10.54;100.00
10638;BME280;47007;49.252;8.904;2023-04-01T00:42:01;98319.91;;;10.53;100.00
10638;BME280;47007;49.252;8.904;2023-04-01T00:42:43;98297.81;;;10.40;100.00
10638;BME280;47007;49.252;8.904;2023-04-01T00:43:28;98315.41;;;10.53;100.00
10638;BME280;47007;49.252;8.904;2023-04-01T00:44:23;98330.06;;;10.56;100.00
10638;BME280;47007;49.252;8.904;2023-04-01T00:46:08;98299.91;;;10.57;100.00
10638;BME280;47007;49.252;8.904;2023-04-01T00:46:50;98313.75;;;10.59;100.00
10638;BME280;47007;49.252;8.904;2023-04-01T00:47:34;98310.56;;;10.68;100.00
10638;BME280;47007;49.252;8.904;2023-04-01T00:48:18;98325.66;;;10.68;100.00
10638;BME280;47007;49.252;8.904;2023-04-01T00:49:02;98309.63;;;10.63;100.00
10638;BME280;47007;49.252;8.904;2023-04-01T00:49:46;98315.81;;;10.75;100.00
10638;BME280;47007;49.252;8.904;2023-04-01T00:50:30;98320.06;;;10.76;100.00
10638;BME280;47007;49.252;8.904;2023-04-01T00:51:27;98323.75;;;10.75;100.00
10638;BME280;47007;49.252;8.904;2023-04-01T00:52:14;98313.44;;;10.67;100.00
10638;BME280;47007;49.252;8.904;2023-04-01T00:52:58;98308.94;;;10.67;100.00
10638;BME280;47007;49.252;8.904;2023-04-01T00:53:47;98324.56;;;10.75;100.00
10638;BME280;47007;49.252;8.904;2023-04-01T00:54:31;98306.03;;;10.75;100.00
10638;BME280;47007;49.252;8.904;2023-04-01T00:55:14;98316.38;;;10.77;100.00
10638;BME280;47007;49.252;8.904;2023-04-01T00:56:05;98313.50;;;10.78;100.00
10638;BME280;47007;49.252;8.904;2023-04-01T00:56:52;98318.47;;;10.75;100.00
10638;BME280;47007;49.252;8.904;2023-04-01T00:57:39;98310.63;;;10.80;100.00
10638;BME280;47007;49.252;8.904;2023-04-01T00:58:24;98320.38;;;10.86;100.00
10638;BME280;47007;49.252;8.904;2023-04-01T00:59:14;98320.66;;;10.78;100.00
10638;BME280;47007;49.252;8.904;2023-04-01T00:59:57;98313.97;;;10.75;100.00
10638;BME280;47007;49.252;8.904;2023-04-01T01:00:39;98310.94;;;10.72;100.00
10638;BME280;47007;49.252;8.904;2023-04-01T01:01:22;98305.06;;;10.70;100.00
10638;BME280;47007;49.252;8.904;2023-04-01T01:02:07;98313.72;;;10.77;100.00
10638;BME280;47007;49.252;8.904;2023-04-01T01:02:50;98317.19;;;10.77;100.00
10638;BME280;47007;49.252;8.904;2023-04-01T01:03:33;98321.69;;;10.77;100.00
10638;BME280;47007;49.252;8.904;2023-04-01T01:04:24;98316.38;;;10.77;100.00
10638;BME280;47007;49.252;8.904;2023-04-01T01:05:06;98321.69;;;10.77;100.00
10638;BME280;47007;49.252;8.904;2023-04-01T01:06:08;98318.16;;;10.83;100.00
10638;BME280;47007;49.252;8.904;2023-04-01T01:06:59;98318.28;;;10.88;100.00
10638;BME280;47007;49.252;8.904;2023-04-01T01:08:22;98303.28;;;10.82;100.00
10638;BME280;47007;49.252;8.904;2023-04-01T01:09:34;98317.84;;;10.91;100.00
10638;BME280;47007;49.252;8.904;2023-04-01T01:10:35;98319.91;;;10.89;100.00
10638;BME280;47007;49.252;8.904;2023-04-01T01:11:25;98312.97;;;10.88;100.00
10638;BME280;47007;49.252;8.904;2023-04-01T01:13:35;98322.44;;;10.84;100.00
10638;BME280;47007;49.252;8.904;2023-04-01T01:16:46;98309.47;;;10.76;100.00
10638;BME280;47007;49.252;8.904;2023-04-01T01:18:49;98315.94;;;10.80;100.00
10638;BME280;47007;49.252;8.904;2023-04-01T01:20:37;98311.66;;;10.79;100.00
10638;BME280;47007;49.252;8.904;2023-04-01T01:24:45;98299.00;;;10.81;100.00
10638;BME280;47007;49.252;8.904;2023-04-01T01:25:50;98303.50;;;10.80;100.00
10638;BME280;47007;49.252;8.904;2023-04-01T01:27:33;98306.75;;;10.83;100.00
10638;BME280;47007;49.252;8.904;2023-04-01T01:28:34;98291.50;;;10.78;100.00
10638;BME280;47007;49.252;8.904;2023-04-01T01:30:56;98298.38;;;10.86;100.00
10638;BME280;47007;49.252;8.904;2023-04-01T01:33:17;98292.31;;;10.78;100.00
10638;BME280;47007;49.252;8.904;2023-04-01T01:36:06;98288.94;;;10.71;100.00
10638;BME280;47007;49.252;8.904;2023-04-01T01:36:57;98292.41;;;10.72;100.00
10638;BME280;47007;49.252;8.904;2023-04-01T01:37:41;98281.03;;;10.65;100.00
10638;BME280;47007;49.252;8.904;2023-04-01T01:38:27;98285.53;;;10.64;100.00
10638;BME280;47007;49.252;8.904;2023-04-01T01:39:14;98265.88;;;10.54;100.00
10638;BME280;47007;49.252;8.904;2023-04-01T01:40:01;98261.31;;;10.42;100.00
10638;BME280;47007;49.252;8.904;2023-04-01T01:40:48;98264.25;;;10.53;100.00
10638;BME280;47007;49.252;8.904;2023-04-01T01:41:34;98287.09;;;10.54;100.00
10638;BME280;47007;49.252;8.904;2023-04-01T01:42:19;98284.00;;;10.57;100.00
10638;BME280;47007;49.252;8.904;2023-04-01T01:43:08;98271.28;;;10.47;100.00
10638;BME280;47007;49.252;8.904;2023-04-01T01:43:52;98281.94;;;10.59;100.00
10638;BME280;47007;49.252;8.904;2023-04-01T01:44:36;98278.28;;;10.60;100.00
10638;BME280;47007;49.252;8.904;2023-04-01T01:45:21;98286.81;;;10.62;100.00
10638;BME280;47007;49.252;8.904;2023-04-01T01:46:14;98274.38;;;10.62;100.00
10638;BME280;47007;49.252;8.904;2023-04-01T01:46:58;98278.28;;;10.60;100.00
10638;BME280;47007;49.252;8.904;2023-04-01T01:47:41;98281.84;;;10.65;100.00
10638;BME280;47007;49.252;8.904;2023-04-01T01:48:27;98281.03;;;10.65;100.00
10638;BME280;47007;49.252;8.904;2023-04-01T01:49:11;98277.69;;;10.58;100.00
10638;BME280;47007;49.252;8.904;2023-04-01T01:49:55;98277.03;;;10.62;100.00
10638;BME280;47007;49.252;8.904;2023-04-01T01:50:39;98257.94;;;10.54;100.00
10638;BME280;47007;49.252;8.904;2023-04-01T01:51:24;98277.84;;;10.63;100.00
10638;BME280;47007;49.252;8.904;2023-04-01T01:52:06;98277.59;;;10.64;100.00
10638;BME280;47007;49.252;8.904;2023-04-01T01:52:47;98273.31;;;10.63;100.00
10638;BME280;47007;49.252;8.904;2023-04-01T01:53:29;98264.72;;;10.68;100.00
10638;BME280;47007;49.252;8.904;2023-04-01T01:54:15;98280.63;;;10.68;100.00
10638;BME280;47007;49.252;8.904;2023-04-01T01:54:58;98261.34;;;10.61;100.00
10638;BME280;47007;49.252;8.904;2023-04-01T01:55:47;98273.63;;;10.73;100.00
10638;BME280;47007;49.252;8.904;2023-04-01T01:56:30;98280.78;;;10.73;100.00
10638;BME280;47007;49.252;8.904;2023-04-01T01:57:14;98277.09;;;10.74;100.00
10638;BME280;47007;49.252;8.904;2023-04-01T01:58:15;98282.19;;;10.75;100.00
10638;BME280;47007;49.252;8.904;2023-04-01T01:59:06;98280.56;;;10.74;100.00
10638;BME280;47007;49.252;8.904;2023-04-01T01:59:52;98276.06;;;10.75;100.00
10638;BME280;47007;49.252;8.904;2023-04-01T02:00:43;98261.63;;;10.71;100.00
10638;BME280;47007;49.252;8.904;2023-04-01T02:01:29;98256.63;;;10.63;100.00
10638;BME280;47007;49.252;8.904;2023-04-01T02:02:23;98267.88;;;10.76;100.00
10638;BME280;47007;49.252;8.904;2023-04-01T02:03:07;98270.22;;;10.85;100.00
10638;BME280;47007;49.252;8.904;2023-04-01T02:03:51;98213.59;;;10.49;100.00
10638;BME280;47007;49.252;8.904;2023-04-01T02:04:39;98270.44;;;10.83;100.00
10638;BME280;47007;49.252;8.904;2023-04-01T02:05:25;98271.03;;;10.85;100.00
10638;BME280;47007;49.252;8.904;2023-04-01T02:06:18;98267.38;;;10.86;100.00
10638;BME280;47007;49.252;8.904;2023-04-01T02:07:03;98281.19;;;10.88;100.00
10638;BME280;47007;49.252;8.904;2023-04-01T02:07:54;98274.34;;;10.80;100.00
10638;BME280;47007;49.252;8.904;2023-04-01T02:09:06;98280.25;;;10.83;100.00
10638;BME280;47007;49.252;8.904;2023-04-01T02:09:49;98281.06;;;10.83;100.00
10638;BME280;47007;49.252;8.904;2023-04-01T02:10:35;98284.50;;;10.84;100.00
10638;BME280;47007;49.252;8.904;2023-04-01T02:11:26;98278.63;;;10.82;100.00
10638;BME280;47007;49.252;8.904;2023-04-01T02:12:13;98278.41;;;10.83;100.00
10638;BME280;47007;49.252;8.904;2023-04-01T02:13:01;98269.50;;;10.77;100.00
10638;BME280;47007;49.252;8.904;2023-04-01T02:13:52;98284.00;;;10.75;100.00
10638;BME280;47007;49.252;8.904;2023-04-01T02:15:24;98279.88;;;10.79;100.00
10638;BME280;47007;49.252;8.904;2023-04-01T02:16:19;98273.69;;;10.85;100.00
10638;BME280;47007;49.252;8.904;2023-04-01T02:17:09;98276.56;;;10.84;100.00
10638;BME280;47007;49.252;8.904;2023-04-01T02:17:53;98281.47;;;10.98;100.00
10638;BME280;47007;49.252;8.904;2023-04-01T02:18:37;98259.56;;;10.73;100.00
10638;BME280;47007;49.252;8.904;2023-04-01T02:19:22;98289.88;;;10.95;100.00
10638;BME280;47007;49.252;8.904;2023-04-01T02:20:12;98286.63;;;10.93;100.00
10638;BME280;47007;49.252;8.904;2023-04-01T02:20:58;98275.88;;;10.88;100.00
10638;BME280;47007;49.252;8.904;2023-04-01T02:21:41;98265.22;;;10.76;100.00
10638;BME280;47007;49.252;8.904;2023-04-01T02:22:27;98270.09;;;10.79;100.00
10638;BME280;47007;49.252;8.904;2023-04-01T02:23:10;98281.56;;;10.92;100.00
10638;BME280;47007;49.252;8.904;2023-04-01T02:23:53;98285.22;;;10.91;100.00
10638;BME280;47007;49.252;8.904;2023-04-01T02:24:37;98289.94;;;10.89;100.00
10638;BME280;47007;49.252;8.904;2023-04-01T02:25:27;98263.03;;;10.73;100.00
10638;BME280;47007;49.252;8.904;2023-04-01T02:26:11;98280.84;;;10.85;100.00
10638;BME280;47007;49.252;8.904;2023-04-01T02:26:54;98278.63;;;10.82;100.00
10638;BME280;47007;49.252;8.904;2023-04-01T02:27:36;98283.47;;;10.85;100.00
10638;BME280;47007;49.252;8.904;2023-04-01T02:28:18;98277.00;;;10.80;100.00
10638;BME280;47007;49.252;8.904;2023-04-01T02:29:03;98256.31;;;10.71;100.00
10638;BME280;47007;49.252;8.904;2023-04-01T02:29:47;98283.69;;;10.83;100.00
10638;BME280;47007;49.252;8.904;2023-04-01T02:30:29;98279.44;;;10.82;100.00
10638;BME280;47007;49.252;8.904;2023-04-01T02:31:14;98283.69;;;10.83;100.00
10638;BME280;47007;49.252;8.904;2023-04-01T02:31:56;98286.94;;;10.85;100.00
10638;BME280;47007;49.252;8.904;2023-04-01T02:32:40;98290.19;;;10.87;100.00
10638;BME280;47007;49.252;8.904;2023-04-01T02:33:22;98284.28;;;10.85;100.00
10638;BME280;47007;49.252;8.904;2023-04-01T02:34:04;98267.75;;;10.71;100.00
10638;BME280;47007;49.252;8.904;2023-04-01T02:34:46;98288.19;;;10.83;100.00
10638;BME280;47007;49.252;8.904;2023-04-01T02:35:28;98286.78;;;10.80;100.00
10638;BME280;47007;49.252;8.904;2023-04-01T02:36:13;98281.06;;;10.83;100.00
10638;BME280;47007;49.252;8.904;2023-04-01T02:36:56;98280.03;;;10.84;100.00
10638;BME280;47007;49.252;8.904;2023-04-01T02:37:39;98280.47;;;10.81;100.00
10638;BME280;47007;49.252;8.904;2023-04-01T02:38:24;98286.78;;;10.80;100.00
10638;BME280;47007;49.252;8.904;2023-04-01T02:39:06;98277.22;;;10.79;100.00
10638;BME280;47007;49.252;8.904;2023-04-01T02:39:49;98279.66;;;10.80;100.00
10638;BME280;47007;49.252;8.904;2023-04-01T02:40:47;98284.00;;;10.75;100.00
10638;BME280;47007;49.252;8.904;2023-04-01T02:41:29;98274.06;;;10.70;100.00
10638;BME280;47007;49.252;8.904;2023-04-01T02:42:13;98289.66;;;10.78;100.00
10638;BME280;47007;49.252;8.904;2023-04-01T02:42:54;98281.72;;;10.78;100.00
10638;BME280;47007;49.252;8.904;2023-04-01T02:43:36;98290.25;;;10.80;100.00
10638;BME280;47007;49.252;8.904;2023-04-01T02:44:18;98284.34;;;10.78;100.00
10638;BME280;47007;49.252;8.904;2023-04-01T02:45:00;98289.06;;;10.76;100.00
10638;BME280;47007;49.252;8.904;2023-04-01T02:45:43;98276.63;;;10.77;100.00
10638;BME280;47007;49.252;8.904;2023-04-01T02:46:25;98284.50;;;10.84;100.00
10638;BME280;47007;49.252;8.904;2023-04-01T02:47:07;98286.34;;;10.83;100.00
10638;BME280;47007;49.252;8.904;2023-04-01T02:47:49;98282.69;;;10.84;100.00
10638;BME280;47007;49.252;8.904;2023-04-01T02:48:31;98286.34;;;10.83;100.00
10638;BME280;47007;49.252;8.904;2023-04-01T02:49:13;98290.03;;;10.82;100.00
10638;BME280;47007;49.252;8.904;2023-04-01T02:49:54;98284.16;;;10.80;100.00
10638;BME280;47007;49.252;8.904;2023-04-01T02:50:40;98280.47;;;10.81;100.00
10638;BME280;47007;49.252;8.904;2023-04-01T02:51:22;98273.09;;;10.83;100.00
10638;BME280;47007;49.252;8.904;2023-04-01T02:52:04;98280.84;;;10.85;100.00
10638;BME280;47007;49.252;8.904;2023-04-01T02:52:46;98287.97;;;10.84;100.00
10638;BME280;47007;49.252;8.904;2023-04-01T02:53:27;98273.97;;;10.77;100.00
10638;BME280;47007;49.252;8.904;2023-04-01T02:54:09;98279.44;;;10.82;100.00
10638;BME280;47007;49.252;8.904;2023-04-01T02:54:51;98275.97;;;10.82;100.00
10638;BME280;47007;49.252;8.904;2023-04-01T02:55:33;98293.28;;;10.84;100.00
10638;BME280;47007;49.252;8.904;2023-04-01T02:56:16;98289.00;;;10.83;100.00
10638;BME280;47007;49.252;8.904;2023-04-01T02:56:58;98278.13;;;10.73;100.00
10638;BME280;47007;49.252;8.904;2023-04-01T02:57:39;98264.28;;;10.71;100.00
10638;BME280;47007;49.252;8.904;2023-04-01T02:58:21;98262.06;;;10.68;100.00
10638;BME280;47007;49.252;8.904;2023-04-01T02:59:03;98272.34;;;10.76;100.00
10638;BME280;47007;49.252;8.904;2023-04-01T02:59:45;98283.34;;;10.79;100.00
10638;BME280;47007;49.252;8.904;2023-04-01T03:00:27;98285.31;;;10.84;100.00
10638;BME280;47007;49.252;8.904;2023-04-01T03:01:08;98294.31;;;10.83;100.00
10638;BME280;47007;49.252;8.904;2023-04-01T03:01:50;98263.03;;;10.73;100.00
10638;BME280;47007;49.252;8.904;2023-04-01T03:02:32;98280.25;;;10.83;100.00
10638;BME280;47007;49.252;8.904;2023-04-01T03:03:14;98279.44;;;10.82;100.00
10638;BME280;47007;49.252;8.904;2023-04-01T03:03:56;98285.97;;;10.79;100.00
10638;BME280;47007;49.252;8.904;2023-04-01T03:04:37;98272.22;;;10.71;100.00
10638;BME280;47007;49.252;8.904;2023-04-01T03:05:19;98273.97;;;10.77;100.00
10638;BME280;47007;49.252;8.904;2023-04-01T03:06:09;98271.69;;;10.80;100.00
10638;BME280;47007;49.252;8.904;2023-04-01T03:06:52;98277.22;;;10.79;100.00
10638;BME280;47007;49.252;8.904;2023-04-01T03:07:33;98270.88;;;10.80;100.00
10638;BME280;47007;49.252;8.904;2023-04-01T03:08:15;98285.91;;;10.86;100.00
10638;BME280;47007;49.252;8.904;2023-04-01T03:08:57;98267.31;;;10.74;100.00
10638;BME280;47007;49.252;8.904;2023-04-01T03:09:40;98285.31;;;10.84;100.00
10638;BME280;47007;49.252;8.904;2023-04-01T03:10:22;98286.94;;;10.85;100.00
10638;BME280;47007;49.252;8.904;2023-04-01T03:11:04;98273.53;;;10.80;100.00
10638;BME280;47007;49.252;8.904;2023-04-01T03:11:50;98290.75;;;10.89;100.00
10638;BME280;47007;49.252;8.904;2023-04-01T03:12:31;98284.88;;;10.87;100.00
10638;BME280;47007;49.252;8.904;2023-04-01T03:13:13;98271.69;;;10.80;100.00
10638;BME280;47007;49.252;8.904;2023-04-01T03:13:55;98297.25;;;10.93;100.00
10638;BME280;47007;49.252;8.904;2023-04-01T03:14:37;98280.16;;;10.89;100.00
10638;BME280;47007;49.252;8.904;2023-04-01T03:15:19;98272.88;;;10.85;100.00
10638;BME280;47007;49.252;8.904;2023-04-01T03:16:00;98289.38;;;10.87;100.00
10638;BME280;47007;49.252;8.904;2023-04-01T03:16:42;98286.13;;;10.85;100.00
10638;BME280;47007;49.252;8.904;2023-04-01T03:17:24;98287.38;;;10.82;100.00
10638;BME280;47007;49.252;8.904;2023-04-01T03:18:07;98289.81;;;10.84;100.00
10638;BME280;47007;49.252;8.904;2023-04-01T03:18:49;98284.94;;;10.80;100.00
10638;BME280;47007;49.252;8.904;2023-04-01T03:19:32;98287.38;;;10.82;100.00
10638;BME280;47007;49.252;8.904;2023-04-01T03:20:19;98290.47;;;10.79;100.00
10638;BME280;47007;49.252;8.904;2023-04-01T03:21:19;98292.69;;;10.82;100.00
10638;BME280;47007;49.252;8.904;2023-04-01T03:22:01;98273.25;;;10.70;100.00
10638;BME280;47007;49.252;8.904;2023-04-01T03:22:43;98285.75;;;10.81;100.00
10638;BME280;47007;49.252;8.904;2023-04-01T03:23:25;98296.53;;;10.86;100.00
10638;BME280;47007;49.252;8.904;2023-04-01T03:24:09;98295.03;;;10.90;100.00
10638;BME280;47007;49.252;8.904;2023-04-01T03:24:51;98277.59;;;10.83;100.00
10638;BME280;47007;49.252;8.904;2023-04-01T03:25:32;98304.16;;;10.94;100.00
10638;BME280;47007;49.252;8.904;2023-04-01T03:26:15;98296.59;;;10.98;100.00
10638;BME280;47007;49.252;8.904;2023-04-01T03:26:57;98298.19;;;10.99;100.00
10638;BME280;47007;49.252;8.904;2023-04-01T03:27:39;98297.16;;;11.00;100.00
10638;BME280;47007;49.252;8.904;2023-04-01T03:28:22;98296.13;;;11.01;100.00
10638;BME280;47007;49.252;8.904;2023-04-01T03:29:05;98303.03;;;11.02;100.00
10638;BME280;47007;49.252;8.904;2023-04-01T03:29:46;98297.16;;;11.00;100.00
10638;BME280;47007;49.252;8.904;2023-04-01T03:30:28;98281.06;;;10.83;100.00
10638;BME280;47007;49.252;8.904;2023-04-01T03:31:13;98295.63;;;10.92;100.00
10638;BME280;47007;49.252;8.904;2023-04-01T03:32:01;98301.13;;;10.91;100.00
10638;BME280;47007;49.252;8.904;2023-04-01T03:32:43;98294.69;;;10.87;100.00
10638;BME280;47007;49.252;8.904;2023-04-01T03:33:25;98286.34;;;10.83;100.00
10638;BME280;47007;49.252;8.904;2023-04-01T03:34:07;98293.66;;;10.88;100.00
10638;BME280;47007;49.252;8.904;2023-04-01T03:34:49;98303.66;;;10.86;100.00
10638;BME280;47007;49.252;8.904;2023-04-01T03:35:31;98298.38;;;10.86;100.00
10638;BME280;47007;49.252;8.904;2023-04-01T03:36:13;98298.38;;;10.86;100.00
10638;BME280;47007;49.252;8.904;2023-04-01T03:36:55;98297.78;;;10.84;100.00
10638;BME280;47007;49.252;8.904;2023-04-01T03:37:37;98296.97;;;10.83;100.00
10638;BME280;47007;49.252;8.904;2023-04-01T03:38:19;98282.94;;;10.76;100.00
10638;BME280;47007;49.252;8.904;2023-04-01T03:39:01;98294.03;;;10.73;100.00
10638;BME280;47007;49.252;8.904;2023-04-01T03:39:50;98287.91;;;10.72;100.00
10638;BME280;47007;49.252;8.904;2023-04-01T03:40:32;98290.34;;;10.74;100.00
10638;BME280;47007;49.252;8.904;2023-04-01T03:41:16;98296.78;;;10.78;100.00
10638;BME280;47007;49.252;8.904;2023-04-01T03:41:58;98294.31;;;10.83;100.00
10638;BME280;47007;49.252;8.904;2023-04-01T03:42:40;98291.50;;;10.78;100.00
10638;BME280;47007;49.252;8.904;2023-04-01T03:43:22;98301.66;;;10.81;100.00
10638;BME280;47007;49.252;8.904;2023-04-01T03:44:04;98292.09;;;10.80;100.00
10638;BME280;47007;49.252;8.904;2023-04-01T03:44:48;98279.38;;;10.70;100.00
10638;BME280;47007;49.252;8.904;2023-04-01T03:45:30;98296.38;;;10.81;100.00
10638;BME280;47007;49.252;8.904;2023-04-01T03:46:17;98295.56;;;10.80;100.00
10638;BME280;47007;49.252;8.904;2023-04-01T03:47:00;98297.78;;;10.84;100.00
10638;BME280;47007;49.252;8.904;2023-04-01T03:47:42;98303.28;;;10.82;100.00
10638;BME280;47007;49.252;8.904;2023-04-01T03:48:25;98287.00;;;10.78;100.00
10638;BME280;47007;49.252;8.904;2023-04-01T03:49:09;98294.75;;;10.80;100.00
10638;BME280;47007;49.252;8.904;2023-04-01T03:49:53;98279.00;;;10.67;100.00
10638;BME280;47007;49.252;8.904;2023-04-01T03:50:35;98291.16;;;10.74;100.00
10638;BME280;47007;49.252;8.904;2023-04-01T03:51:17;98296.00;;;10.77;100.00
10638;BME280;47007;49.252;8.904;2023-04-01T03:51:59;98297.38;;;10.80;100.00
10638;BME280;47007;49.252;8.904;2023-04-01T03:52:40;98271.25;;;10.65;100.00
10638;BME280;47007;49.252;8.904;2023-04-01T03:53:22;98271.84;;;10.67;100.00
10638;BME280;47007;49.252;8.904;2023-04-01T03:54:05;98291.16;;;10.74;100.00
10638;BME280;47007;49.252;8.904;2023-04-01T03:54:47;98271.03;;;10.67;100.00
10638;BME280;47007;49.252;8.904;2023-04-01T03:55:29;98280.41;;;10.69;100.00
10638;BME280;47007;49.252;8.904;2023-04-01T03:56:11;98295.19;;;10.77;100.00
10638;BME280;47007;49.252;8.904;2023-04-01T03:56:53;98295.09;;;10.65;100.00
10638;BME280;47007;49.252;8.904;2023-04-01T03:57:37;98299.31;;;10.73;100.00
10638;BME280;47007;49.252;8.904;2023-04-01T03:58:28;98284.00;;;10.57;100.00
10638;BME280;47007;49.252;8.904;2023-04-01T03:59:11;98292.09;;;10.62;100.00
10638;BME280;47007;49.252;8.904;2023-04-01T03:59:53;98293.34;;;10.59;100.00
10638;BME280;47007;49.252;8.904;2023-04-01T04:00:35;98302.13;;;10.60;100.00
10638;BME280;47007;49.252;8.904;2023-04-01T04:01:19;98303.13;;;10.59;100.00
10638;BME280;47007;49.252;8.904;2023-04-01T04:02:08;98309.47;;;10.58;100.00
10638;BME280;47007;49.252;8.904;2023-04-01T04:02:50;98300.53;;;10.52;100.00
10638;BME280;47007;49.252;8.904;2023-04-01T04:03:38;98291.78;;;10.52;100.00
10638;BME280;47007;49.252;8.904;2023-04-01T04:04:20;98296.44;;;10.56;100.00
10638;BME280;47007;49.252;8.904;2023-04-01T04:05:02;98303.13;;;10.59;100.00
10638;BME280;47007;49.252;8.904;2023-04-01T04:05:47;98283.72;;;10.47;100.00
10638;BME280;47007;49.252;8.904;2023-04-01T04:06:30;98299.91;;;10.57;100.00
10638;BME280;47007;49.252;8.904;2023-04-01T04:07:12;98294.16;;;10.60;100.00
10638;BME280;47007;49.252;8.904;2023-04-01T04:08:19;98290.72;;;10.59;100.00
10638;BME280;47007;49.252;8.904;2023-04-01T04:09:03;98293.34;;;10.59;100.00
10638;BME280;47007;49.252;8.904;2023-04-01T04:09:45;98285.69;;;10.51;100.00
10638;BME280;47007;49.252;8.904;2023-04-01T04:10:27;98305.50;;;10.49;100.00